sensor_id;sensor_type;location;lat;lon;timestamp;P1;durP1;ratioP1;P2;durP2;ratioP2
73104;SDS011;61296;50.526;30.792;2023-04-06T00:12:13;23.95;;;12.75;;
73104;SDS011;61296;50.526;30.792;2023-04-06T00:27:33;24.83;;;12.90;;
73104;SDS011;61296;50.526;30.792;2023-04-06T00:42:52;26.30;;;14.00;;
73104;SDS011;61296;50.526;30.792;2023-04-06T00:58:12;27.88;;;14.48;;
73104;SDS011;61296;50.526;30.792;2023-04-06T01:13:41;31.20;;;15.45;;
73104;SDS011;61296;50.526;30.792;2023-04-06T01:29:08;25.55;;;13.38;;
73104;SDS011;61296;50.526;30.792;2023-04-06T01:44:27;29.83;;;14.40;;
73104;SDS011;61296;50.526;30.792;2023-04-06T01:59:58;27.88;;;14.18;;
73104;SDS011;61296;50.526;30.792;2023-04-06T02:15:32;27.88;;;13.25;;
73104;SDS011;61296;50.526;30.792;2023-04-06T02:30:52;29.10;;;13.77;;
73104;SDS011;61296;50.526;30.792;2023-04-06T02:46:13;34.35;;;15.32;;
73104;SDS011;61296;50.526;30.792;2023-04-06T03:01:32;32.50;;;16.52;;
73104;SDS011;61296;50.526;30.792;2023-04-06T03:16:55;40.15;;;16.58;;
73104;SDS011;61296;50.526;30.792;2023-04-06T03:32:16;34.90;;;16.25;;
73104;SDS011;61296;50.526;30.792;2023-04-06T03:47:36;35.88;;;15.60;;
73104;SDS011;61296;50.526;30.792;2023-04-06T04:02:58;31.17;;;15.60;;
73104;SDS011;61296;50.526;30.792;2023-04-06T04:18:20;28.98;;;14.13;;
73104;SDS011;61296;50.526;30.792;2023-04-06T04:33:40;25.10;;;13.80;;
73104;SDS011;61296;50.526;30.792;2023-04-06T04:49:07;26.40;;;13.17;;
73104;SDS011;61296;50.526;30.792;2023-04-06T05:04:34;26.65;;;12.98;;
73104;SDS011;61296;50.526;30.792;2023-04-06T05:19:57;22.98;;;11.98;;
73104;SDS011;61296;50.526;30.792;2023-04-06T05:35:18;20.45;;;10.95;;
73104;SDS011;61296;50.526;30.792;2023-04-06T05:50:42;19.23;;;10.30;;
73104;SDS011;61296;50.526;30.792;2023-04-06T06:06:04;18.25;;;9.80;;
73104;SDS011;61296;50.526;30.792;2023-04-06T06:21:33;18.45;;;10.27;;
73104;SDS011;61296;50.526;30.792;2023-04-06T06:36:53;14.00;;;7.85;;
73104;SDS011;61296;50.526;30.792;2023-04-06T06:52:14;12.82;;;7.93;;
73104;SDS011;61296;50.526;30.792;2023-04-06T07:07:33;15.52;;;7.85;;
73104;SDS011;61296;50.526;30.792;2023-04-06T07:22:53;18.13;;;9.35;;
73104;SDS011;61296;50.526;30.792;2023-04-06T07:38:12;18.70;;;9.10;;
73104;SDS011;61296;50.526;30.792;2023-04-06T09:21:04;12.38;;;6.82;;
73104;SDS011;61296;50.526;30.792;2023-04-06T09:36:31;22.15;;;11.90;;
73104;SDS011;61296;50.526;30.792;2023-04-06T09:51:56;27.48;;;15.85;;
73104;SDS011;61296;50.526;30.792;2023-04-06T10:07:20;24.42;;;12.35;;
73104;SDS011;61296;50.526;30.792;2023-04-06T10:38:53;22.70;;;12.27;;
73104;SDS011;61296;50.526;30.792;2023-04-06T10:54:16;28.65;;;15.45;;
73104;SDS011;61296;50.526;30.792;2023-04-06T11:09:36;29.02;;;14.23;;
73104;SDS011;61296;50.526;30.792;2023-04-06T11:25:07;34.97;;;18.50;;
73104;SDS011;61296;50.526;30.792;2023-04-06T11:40:27;45.85;;;19.42;;
73104;SDS011;61296;50.526;30.792;2023-04-06T11:55:57;38.80;;;19.08;;
73104;SDS011;61296;50.526;30.792;2023-04-06T12:11:18;33.83;;;16.02;;
73104;SDS011;61296;50.526;30.792;2023-04-06T12:26:38;25.20;;;13.13;;
73104;SDS011;61296;50.526;30.792;2023-04-06T12:42:00;29.00;;;13.60;;
73104;SDS011;61296;50.526;30.792;2023-04-06T12:57:27;25.85;;;12.88;;
73104;SDS011;61296;50.526;30.792;2023-04-06T13:12:47;35.17;;;16.10;;
73104;SDS011;61296;50.526;30.792;2023-04-06T13:28:06;36.58;;;17.25;;
73104;SDS011;61296;50.526;30.792;2023-04-06T13:43:26;33.67;;;15.43;;
73104;SDS011;61296;50.526;30.792;2023-04-06T13:58:47;31.33;;;15.48;;
73104;SDS011;61296;50.526;30.792;2023-04-06T14:14:07;32.20;;;17.00;;
73104;SDS011;61296;50.526;30.792;2023-04-06T14:29:28;34.97;;;15.85;;
73104;SDS011;61296;50.526;30.792;2023-04-06T14:44:57;34.53;;;17.90;;
73104;SDS011;61296;50.526;30.792;2023-04-06T15:00:44;36.05;;;17.08;;
73104;SDS011;61296;50.526;30.792;2023-04-06T15:16:04;35.75;;;17.13;;
73104;SDS011;61296;50.526;30.792;2023-04-06T15:31:24;35.75;;;17.48;;
73104;SDS011;61296;50.526;30.792;2023-04-06T15:46:44;29.77;;;15.02;;
73104;SDS011;61296;50.526;30.792;2023-04-06T16:02:03;22.88;;;12.02;;
73104;SDS011;61296;50.526;30.792;2023-04-06T16:17:22;22.95;;;12.20;;
73104;SDS011;61296;50.526;30.792;2023-04-06T16:32:53;18.83;;;10.55;;
73104;SDS011;61296;50.526;30.792;2023-04-06T16:48:42;15.98;;;10.32;;
73104;SDS011;61296;50.526;30.792;2023-04-06T17:04:01;30.20;;;13.07;;
73104;SDS011;61296;50.526;30.792;2023-04-06T17:19:20;19.27;;;10.30;;
73104;SDS011;61296;50.526;30.792;2023-04-06T17:34:40;16.77;;;9.82;;
73104;SDS011;61296;50.526;30.792;2023-04-06T17:50:01;17.77;;;10.63;;
73104;SDS011;61296;50.526;30.792;2023-04-06T18:05:23;30.15;;;15.00;;
73104;SDS011;61296;50.526;30.792;2023-04-06T18:20:42;29.98;;;15.27;;
73104;SDS011;61296;50.526;30.792;2023-04-06T18:36:02;23.63;;;12.48;;
73104;SDS011;61296;50.526;30.792;2023-04-06T18:51:32;17.13;;;9.57;;
73104;SDS011;61296;50.526;30.792;2023-04-06T19:06:51;11.35;;;6.50;;
73104;SDS011;61296;50.526;30.792;2023-04-06T19:22:12;11.43;;;6.60;;
73104;SDS011;61296;50.526;30.792;2023-04-06T19:37:34;13.27;;;7.80;;
73104;SDS011;61296;50.526;30.792;2023-04-06T19:52:55;21.20;;;11.55;;
73104;SDS011;61296;50.526;30.792;2023-04-06T20:08:14;39.22;;;16.95;;
73104;SDS011;61296;50.526;30.792;2023-04-06T20:23:34;37.58;;;16.73;;
73104;SDS011;61296;50.526;30.792;2023-04-06T20:38:58;29.38;;;14.15;;
73104;SDS011;61296;50.526;30.792;2023-04-06T20:54:34;26.73;;;12.98;;
73104;SDS011;61296;50.526;30.792;2023-04-06T21:09:54;31.20;;;13.68;;
73104;SDS011;61296;50.526;30.792;2023-04-06T21:25:14;26.52;;;12.00;;
73104;SDS011;61296;50.526;30.792;2023-04-06T21:40:34;24.58;;;11.00;;
73104;SDS011;61296;50.526;30.792;2023-04-06T21:55:54;17.52;;;7.45;;
73104;SDS011;61296;50.526;30.792;2023-04-06T22:11:13;17.58;;;7.78;;
73104;SDS011;61296;50.526;30.792;2023-04-06T22:26:32;16.83;;;7.95;;
73104;SDS011;61296;50.526;30.792;2023-04-06T22:41:52;14.80;;;6.65;;
73104;SDS011;61296;50.526;30.792;2023-04-06T22:57:11;13.88;;;6.88;;
73104;SDS011;61296;50.526;30.792;2023-04-06T23:12:30;11.43;;;5.45;;
73104;SDS011;61296;50.526;30.792;2023-04-06T23:27:50;14.02;;;6.47;;
73104;SDS011;61296;50.526;30.792;2023-04-06T23:43:10;17.27;;;7.03;;
73104;SDS011;61296;50.526;30.792;2023-04-06T23:58:29;13.13;;;5.43;;
